Time;durP1;ratioP1;P1;durP2;ratioP2;P2;SDS_P1;SDS_P2;PMS_P1;PMS_P2;Temp;Humidity;BMP_temperature;BMP_pressure;BME280_temperature;BME280_humidity;BME280_pressure;Samples;Min_cycle;Max_cycle;Signal;HPM_P1;HPM_P2
2023/09/22 00:00:59;;;;;;;;;;;;;;;21.40;62.92;99344.50;4226988;28;20378;-74
2023/09/22 00:03:02;;;;;;;;;;;;;;;21.38;62.88;99343.97;4226834;28;20010;-74
2023/09/22 00:05:06;;;;;;;;;;;;;;;21.36;63.38;99347.00;4227640;28;20035;-74
2023/09/22 00:07:08;;;;;;;;;;;;;;;21.35;63.21;99345.34;4227599;28;20014;-73
2023/09/22 00:09:10;;;;;;;;;;;;;;;21.33;63.10;99342.06;4228554;28;20496;-74
2023/09/22 00:11:12;;;;;;;;;;;;;;;21.33;63.32;99338.47;4225861;28;20002;-75
2023/09/22 00:13:14;;;;;;;;;;;;;;;21.31;63.33;99346.19;4227318;28;20338;-74
2023/09/22 00:15:17;;;;;;;;;;;;;;;21.29;63.36;99338.22;4227399;28;20015;-74
2023/09/22 00:17:19;;;;;;;;;;;;;;;21.25;63.38;99342.63;4227856;28;19998;-75
2023/09/22 00:19:21;;;;;;;;;;;;;;;21.22;63.62;99340.44;4226325;28;20011;-76
2023/09/22 00:21:24;;;;;;;;;;;;;;;21.20;63.72;99324.25;4226778;28;20018;-73
2023/09/22 00:23:26;;;;;;;;;;;;;;;21.19;63.64;99324.53;4227809;28;20050;-74
2023/09/22 00:25:28;;;;;;;;;;;;;;;21.19;63.65;99328.13;4228343;28;20010;-75
2023/09/22 00:27:30;;;;;;;;;;;;;;;21.18;63.64;99340.19;4227639;28;20014;-75
2023/09/22 00:29:32;;;;;;;;;;;;;;;21.16;64.16;99350.66;4226117;28;20377;-74
2023/09/22 00:31:34;;;;;;;;;;;;;;;21.16;63.90;99369.03;4225307;28;20015;-77
2023/09/22 00:33:36;;;;;;;;;;;;;;;21.13;64.11;99358.59;4227566;28;20010;-75
2023/09/22 00:35:37;;;;;;;;;;;;;;;21.13;64.18;99369.59;4219181;28;20452;-75
2023/09/22 00:37:41;;;;;;;;;;;;;;;21.09;64.24;99366.59;4225745;28;20010;-75
2023/09/22 00:39:43;;;;;;;;;;;;;;;21.07;64.20;99368.81;4225835;28;20355;-74
2023/09/22 00:41:45;;;;;;;;;;;;;;;21.01;64.66;99370.75;4218645;28;20026;-74
2023/09/22 00:43:47;;;;;;;;;;;;;;;20.97;65.08;99377.91;4234976;28;20086;-74
2023/09/22 00:45:49;;;;;;;;;;;;;;;20.97;64.71;99371.56;4218725;28;20383;-75
2023/09/22 00:47:53;;;;;;;;;;;;;;;20.93;64.91;99374.06;4229400;28;19919;-73
2023/09/22 00:49:55;;;;;;;;;;;;;;;20.90;65.27;99380.09;4230855;28;19920;-75
2023/09/22 00:51:58;;;;;;;;;;;;;;;20.87;65.25;99376.00;4229577;28;20528;-74
2023/09/22 00:54:02;;;;;;;;;;;;;;;20.88;65.13;99371.34;4230883;28;20042;-74
2023/09/22 00:56:05;;;;;;;;;;;;;;;20.86;65.34;99366.13;4228867;28;20023;-73
2023/09/22 00:58:07;;;;;;;;;;;;;;;20.81;65.95;99366.13;4230043;28;20026;-74
2023/09/22 01:00:09;;;;;;;;;;;;;;;20.79;65.89;99368.34;4227725;28;20393;-75
2023/09/22 01:02:12;;;;;;;;;;;;;;;20.75;66.21;99369.16;4227712;28;20031;-74
2023/09/22 01:04:14;;;;;;;;;;;;;;;20.74;65.90;99376.59;4229465;27;20017;-75
2023/09/22 01:06:16;;;;;;;;;;;;;;;20.70;65.87;99361.78;4229523;28;20445;-74
2023/09/22 01:08:18;;;;;;;;;;;;;;;20.69;66.09;99360.97;4229793;28;20014;-74
2023/09/22 01:10:23;;;;;;;;;;;;;;;20.67;66.26;99362.31;4230359;28;20481;-74
2023/09/22 01:12:25;;;;;;;;;;;;;;;20.64;66.59;99358.22;4230284;28;20011;-73
2023/09/22 01:14:27;;;;;;;;;;;;;;;20.66;65.98;99357.97;4229874;28;20010;-74
2023/09/22 01:16:29;;;;;;;;;;;;;;;20.68;66.21;99364.78;4229104;28;20051;-74
2023/09/22 01:18:31;;;;;;;;;;;;;;;20.68;66.11;99370.28;4228355;28;20011;-74
2023/09/22 01:20:33;;;;;;;;;;;;;;;20.67;66.10;99376.03;4229063;28;20360;-73
2023/09/22 01:22:37;;;;;;;;;;;;;;;20.63;66.61;99366.72;4230604;28;20027;-73
2023/09/22 01:24:39;;;;;;;;;;;;;;;20.60;66.76;99367.25;4228081;28;20007;-74
2023/09/22 01:26:40;;;;;;;;;;;;;;;20.56;66.86;99360.69;4227801;28;20026;-74
2023/09/22 01:28:42;;;;;;;;;;;;;;;20.54;67.16;99369.19;4229478;28;20392;-74
2023/09/22 01:30:44;;;;;;;;;;;;;;;20.52;67.34;99369.47;4227143;28;19923;-73
2023/09/22 01:32:46;;;;;;;;;;;;;;;20.51;66.94;99365.06;4228529;28;20355;-74
2023/09/22 01:34:48;;;;;;;;;;;;;;;20.51;66.96;99367.00;4221341;28;20444;-75
2023/09/22 01:36:50;;;;;;;;;;;;;;;20.51;67.25;99375.22;4220751;28;20015;-75
2023/09/22 01:38:53;;;;;;;;;;;;;;;20.48;68.02;99373.03;4230586;28;20014;-75
2023/09/22 01:40:58;;;;;;;;;;;;;;;20.45;67.88;99366.16;4220426;28;19963;-73
2023/09/22 01:43:00;;;;;;;;;;;;;;;20.45;67.42;99382.63;4229978;28;20002;-74
2023/09/22 01:45:02;;;;;;;;;;;;;;;20.43;67.75;99389.50;4230524;28;20022;-73
2023/09/22 01:47:04;;;;;;;;;;;;;;;20.37;68.00;99388.66;4230017;28;20038;-74
2023/09/22 01:49:06;;;;;;;;;;;;;;;20.39;67.84;99402.09;4228710;28;20014;-75
2023/09/22 01:51:08;;;;;;;;;;;;;;;20.35;68.00;99399.09;4219738;28;19919;-74
2023/09/22 01:53:11;;;;;;;;;;;;;;;20.33;68.13;99407.59;4229613;28;20006;-73
2023/09/22 01:55:14;;;;;;;;;;;;;;;20.34;67.98;99405.66;4228520;28;20315;-74
2023/09/22 01:57:17;;;;;;;;;;;;;;;20.30;68.28;99408.13;4220679;28;20010;-75
2023/09/22 01:59:22;;;;;;;35.20;25.27;;;;;;;20.30;68.35;99401.84;4225882;28;24549;-72
2023/09/22 02:01:24;;;;;;;;;;;;;;;20.30;67.91;99404.59;4228212;28;20729;-75
2023/09/22 02:03:27;;;;;;;;;;;;;;;20.28;68.32;99407.59;4228917;28;20023;-76
2023/09/22 02:05:30;;;;;;;;;;;;;;;20.26;68.57;99414.44;4229685;28;20027;-73
2023/09/22 02:07:32;;;;;;;;;;;;;;;20.25;68.52;99410.88;4229524;28;20010;-73
2023/09/22 02:09:35;;;;;;;;;;;;;;;20.22;68.42;99411.44;4229006;28;20006;-74
2023/09/22 02:11:40;;;;;;;;;;;;;;;20.21;68.44;99407.03;4228829;28;19942;-75
2023/09/22 02:13:43;;;;;;;;;;;;;;;20.22;68.44;99399.63;4230346;28;20014;-74
2023/09/22 02:15:44;;;;;;;;;;;;;;;20.20;68.40;99399.09;4220794;28;20014;-73
2023/09/22 02:17:47;;;;;;;;;;;;;;;20.21;68.34;99403.47;4212599;28;20071;-73
2023/09/22 02:19:49;;;;;;;;;;;;;;;20.21;68.16;99401.56;4228183;28;19959;-74
2023/09/22 02:21:51;;;;;;;;;;;;;;;20.22;68.48;99408.69;4227713;28;19973;-72
2023/09/22 02:23:53;;;;;;;;;;;;;;;20.20;68.41;99408.13;4229156;28;20397;-75
2023/09/22 02:25:55;;;;;;;;;;;;;;;20.20;68.31;99410.06;4229151;28;20011;-75
2023/09/22 02:27:59;;;;;;;;;;;;;;;20.21;68.42;99419.94;4219031;28;20035;-74
2023/09/22 02:30:00;;;;;;;;;;;;;;;20.21;68.39;99426.22;4228579;28;20011;-73
2023/09/22 02:32:02;;;;;;;;;;;;;;;20.20;68.23;99427.31;4227700;28;19954;-73
2023/09/22 02:34:04;;;;;;;;;;;;;;;20.21;68.42;99428.16;4229789;28;20008;-75
2023/09/22 02:36:06;;;;;;;;;;;;;;;20.22;68.54;99429.78;4220531;28;20019;-74
2023/09/22 02:38:08;;;;;;;;;;;;;;;20.23;68.50;99426.75;4221355;28;20850;-74
2023/09/22 02:40:13;;;;;;;;;;;;;;;20.24;68.40;99427.59;4237112;27;20015;-74
2023/09/22 02:42:15;;;;;;;;;;;;;;;20.24;68.75;99442.13;4218192;28;20015;-73
2023/09/22 02:44:19;;;;;;;;;;;;;;;20.20;69.16;99456.66;4229639;28;20610;-72
2023/09/22 02:46:21;;;;;;;;;;;;;;;20.15;69.40;99460.22;4229610;28;20014;-75
2023/09/22 02:48:23;;;;;;;;;;;;;;;20.11;69.73;99457.19;4220392;28;20435;-73
2023/09/22 02:50:24;;;;;;;;;;;;;;;20.06;70.61;99456.34;4227231;28;20053;-73
2023/09/22 02:52:26;;;;;;;;;;;;;;;20.02;70.29;99460.75;4227843;28;19936;-73
2023/09/22 02:54:28;;;;;;;;;;;;;;;20.03;70.42;99462.38;4228738;28;20014;-73
2023/09/22 02:56:32;;;;;;;;;;;;;;;19.97;71.24;99464.28;4229450;28;20371;-76
2023/09/22 02:58:35;;;;;;;;;;;;;;;19.97;71.00;99478.00;4236414;27;20022;-76
2023/09/22 03:00:43;;;;;;;;;;;;;;;19.92;71.42;99473.31;4226595;28;20030;-76
2023/09/22 03:02:43;;;;;;;;;;;;;;;19.88;71.96;99472.22;4227930;28;20010;-75
2023/09/22 03:04:46;;;;;;;;;;;;;;;19.85;71.77;99475.50;4227475;28;19930;-77
2023/09/22 03:06:49;;;;;;;;;;;;;;;19.85;71.59;99478.22;4228757;28;20041;-75
2023/09/22 03:08:51;;;;;;;;;;;;;;;19.82;72.59;99478.75;4227758;28;20077;-75
2023/09/22 03:10:54;;;;;;;;;;;;;;;19.79;72.55;99471.91;4228243;28;20018;-75
2023/09/22 03:12:56;;;;;;;;;;;;;;;19.79;72.63;99479.31;4218789;28;19969;-76
2023/09/22 03:14:59;;;;;;;;;;;;;;;19.77;72.88;99482.31;4210480;28;20006;-75
2023/09/22 03:17:02;;;;;;;;;;;;;;;19.79;71.83;99487.53;4229189;27;20018;-76
2023/09/22 03:19:04;;;;;;;;;;;;;;;19.78;72.69;99488.59;4228479;28;20014;-75
2023/09/22 03:21:06;;;;;;;;;;;;;;;19.76;73.30;99493.50;4227167;28;20030;-75
2023/09/22 03:23:08;;;;;;;;;;;;;;;19.72;73.59;99492.41;4219166;27;20433;-75
2023/09/22 03:25:11;;;;;;;;;;;;;;;19.70;73.19;99487.19;4219008;28;20425;-74
2023/09/22 03:27:14;;;;;;;;;;;;;;;19.72;73.42;99495.16;4226733;28;20015;-73
2023/09/22 03:29:17;;;;;;;;;;;;;;;19.68;73.33;99505.78;4226553;28;20010;-78
2023/09/22 03:31:19;;;;;;;;;;;;;;;19.67;73.59;99509.66;4224974;28;20014;-76
2023/09/22 03:33:24;;;;;;;;;;;;;;;19.63;73.85;99512.06;4226510;28;20018;-75
2023/09/22 03:35:26;;;;;;;;;;;;;;;19.65;73.39;99514.53;4225858;28;20082;-75
2023/09/22 03:37:29;;;;;;;;;;;;;;;19.65;73.34;99522.75;4228626;28;20030;-76
2023/09/22 03:39:32;;;;;;;;;;;;;;;19.66;73.05;99534.56;4226670;28;20089;-73
2023/09/22 03:41:35;;;;;;;;;;;;;;;19.66;72.83;99540.03;4226633;28;20403;-75
2023/09/22 03:43:36;;;;;;;;;;;;;;;19.63;72.83;99542.19;4226323;28;20023;-73
2023/09/22 03:45:39;;;;;;;;;;;;;;;19.65;72.62;99550.16;4226012;28;19972;-76
2023/09/22 03:47:40;;;;;;;;;;;;;;;19.65;72.67;99565.78;4235603;27;20007;-74
2023/09/22 03:49:43;;;;;;;;;;;;;;;19.67;72.58;99571.81;4226416;28;20370;-76
2023/09/22 03:51:45;;;;;;;;;;;;;;;19.66;73.15;99565.50;4226524;28;20027;-74
2023/09/22 03:53:47;;;;;;;;;;;;;;;19.63;73.40;99569.59;4227312;28;20340;-74
2023/09/22 03:55:49;;;;;;;;;;;;;;;19.62;73.03;99578.91;4228459;28;20018;-73
2023/09/22 03:57:51;;;;;;;;;;;;;;;19.62;72.78;99562.50;4227704;28;20010;-74
2023/09/22 03:59:53;;;;;;;;;;;;;;;19.64;73.19;99578.66;4226623;28;20061;-74
2023/09/22 04:01:55;;;;;;;;;;;;;;;19.60;73.27;99583.00;4226089;28;20003;-74
2023/09/22 04:03:57;;;;;;;;;;;;;;;19.57;74.05;99589.81;4219211;28;20058;-74
2023/09/22 04:06:01;;;;;;;;;;;;;;;19.57;74.29;99589.00;4227950;28;20010;-75
2023/09/22 04:08:05;;;;;;;;;;;;;;;19.51;75.12;99599.09;4225911;28;20015;-74
2023/09/22 04:10:08;;;;;;;;;;;;;;;19.47;75.59;99594.41;4218985;28;20006;-75
2023/09/22 04:12:11;;;;;;;;;;;;;;;19.46;75.87;99590.84;4221011;28;20018;-74
2023/09/22 04:14:14;;;;;;;;;;;;;;;19.43;75.52;99597.66;4218020;28;19966;-75
2023/09/22 04:16:16;;;;;;;;;;;;;;;19.34;76.18;99601.16;4227315;28;20006;-75
2023/09/22 04:18:18;;;;;;;;;;;;;;;19.29;76.77;99603.88;4227159;28;20002;-73
2023/09/22 04:20:28;;;;;;;;;;;;;;;19.26;76.78;99607.97;4227326;28;20590;-76
2023/09/22 04:22:32;;;;;;;;;;;;;;;19.22;77.67;99596.72;4230121;28;20038;-75
2023/09/22 04:24:34;;;;;;;;;;;;;;;19.17;76.83;99583.00;4229071;28;20018;-74
2023/09/22 04:26:42;;;;;;;;;;;;;;;19.22;76.86;99566.59;4230679;28;20839;-72
2023/09/22 04:28:46;;;;;;;;;;;;;;;19.25;76.02;99551.59;4229535;28;20010;-72
2023/09/22 04:30:48;;;;;;;;;;;;;;;19.28;75.77;99545.59;4228717;28;20014;-72
2023/09/22 04:32:51;;;;;;;;;;;;;;;19.33;75.85;99550.25;4222144;28;20065;-76
2023/09/22 04:34:53;;;;;;;;;;;;;;;19.35;75.84;99537.94;4226557;28;19928;-76
2023/09/22 04:36:55;;;;;;;;;;;;;;;19.38;75.00;99539.34;4230252;28;20026;-76
2023/09/22 04:38:59;;;;;;;;;;;;;;;19.40;75.45;99538.00;4230110;28;20427;-75
2023/09/22 04:41:01;;;;;;;;;;;;;;;19.43;75.60;99529.22;4230364;28;20018;-75
2023/09/22 04:43:05;;;;;;;;;;;;;;;19.41;76.28;99531.41;4229959;28;20010;-74
2023/09/22 04:45:09;;;;;;;;;;;;;;;19.40;76.32;99537.16;4237656;27;20371;-76
2023/09/22 04:47:11;;;;;;;;;;;;;;;19.37;76.95;99541.25;4228780;28;20016;-75
2023/09/22 04:49:13;;;;;;;;;;;;;;;19.35;77.38;99548.88;4229978;28;20019;-74
2023/09/22 04:51:16;;;;;;;;;;;;;;;19.33;77.92;99574.91;4227672;28;20014;-76
2023/09/22 04:53:17;;;;;;;;;;;;;;;19.30;77.82;99591.84;4228886;28;20010;-76
2023/09/22 04:55:20;;;;;;;;;;;;;;;19.19;79.70;99599.16;4229000;28;19919;-74
2023/09/22 04:57:22;;;;;;;;;;;;;;;19.17;79.13;99607.63;4231510;28;20030;-76
2023/09/22 04:59:24;;;;;;;;;;;;;;;19.08;79.50;99614.66;4228671;28;20039;-75
2023/09/22 05:01:26;;;;;;;;;;;;;;;19.04;79.24;99614.38;4222951;28;20011;-73
2023/09/22 05:03:29;;;;;;;;;;;;;;;18.99;80.56;99619.78;4228310;28;20022;-73
2023/09/22 05:05:30;;;;;;;;;;;;;;;18.95;80.44;99610.47;4227039;28;20014;-72
2023/09/22 05:07:33;;;;;;;;;;;;;;;18.88;81.63;99601.63;4228371;28;20011;-73
2023/09/22 05:09:36;;;;;;;;;;;;;;;18.89;80.06;99600.56;4227529;28;20006;-74
2023/09/22 05:11:39;;;;;;;;;;;;;;;18.86;80.97;99585.47;4227729;28;20393;-73
2023/09/22 05:13:41;;;;;;;;;;;;;;;18.89;79.80;99575.94;4228077;28;20520;-73
2023/09/22 05:15:43;;;;;;;;;;;;;;;18.89;79.98;99576.75;4228804;28;20469;-73
2023/09/22 05:17:44;;;;;;;;;;;;;;;18.93;78.94;99576.22;4228255;28;20019;-73
2023/09/22 05:19:46;;;;;;;;;;;;;;;18.90;81.04;99583.03;4228715;28;19927;-74
2023/09/22 05:21:48;;;;;;;;;;;;;;;18.88;80.06;99580.56;4220415;28;20035;-74
2023/09/22 05:23:51;;;;;;;;;;;;;;;18.90;79.64;99581.16;4228297;28;20014;-77
2023/09/22 05:25:53;;;;;;;;;;;;;;;18.93;79.69;99578.97;4228554;28;20011;-75
2023/09/22 05:27:56;;;;;;;;;;;;;;;18.94;79.41;99573.22;4221996;28;20600;-75
2023/09/22 05:29:57;;;;;;;;;;;;;;;18.96;79.16;99581.19;4225138;28;20015;-74
2023/09/22 05:31:59;;;;;;;;;;;;;;;18.98;78.98;99584.47;4227028;28;19926;-76
2023/09/22 05:34:01;;;;;;;;;;;;;;;18.96;79.60;99583.91;4229763;28;20034;-76
2023/09/22 05:36:05;;;;;;;;;;;;;;;18.98;79.96;99600.88;4227700;28;20381;-74
2023/09/22 05:38:06;;;;;;;;;;;;;;;18.96;80.27;99601.16;4219297;28;20022;-76
2023/09/22 05:40:12;;;;;;;;;;;;;;;18.96;80.75;99620.31;4227866;28;20046;-75
2023/09/22 05:42:14;;;;;;;;;;;;;;;18.85;83.30;99634.97;4227603;28;20098;-74
2023/09/22 05:44:17;;;;;;;;;;;;;;;18.76;83.75;99644.69;4228383;28;20042;-75
2023/09/22 05:46:19;;;;;;;;;;;;;;;18.70;83.15;99644.66;4228990;28;20015;-76
2023/09/22 05:48:22;;;;;;;;;;;;;;;18.67;84.31;99656.09;4228647;28;20002;-75
2023/09/22 05:50:24;;;;;;;;;;;;;;;18.66;84.98;99659.09;4228597;28;20010;-76
2023/09/22 05:52:26;;;;;;;;;;;;;;;18.64;84.70;99674.94;4229075;28;20007;-74
2023/09/22 05:54:28;;;;;;;;;;;;;;;18.69;82.89;99675.00;4228810;28;20007;-75
2023/09/22 05:56:30;;;;;;;;;;;;;;;18.70;83.77;99691.16;4229808;28;19924;-77
2023/09/22 05:58:32;;;;;;;;;;;;;;;18.68;84.36;99685.13;4230439;28;20031;-75
2023/09/22 06:00:35;;;;;;;;;;;;;;;18.64;84.33;99683.97;4228656;28;20003;-75
2023/09/22 06:02:37;;;;;;;;;;;;;;;18.61;85.10;99689.94;4226754;28;20334;-75
2023/09/22 06:04:39;;;;;;;;;;;;;;;18.61;84.77;99706.34;4229029;28;20011;-75
2023/09/22 06:06:42;;;;;;;;;;;;;;;18.54;86.19;99702.97;4228769;28;20021;-76
2023/09/22 06:08:45;;;;;;;;;;;;;;;18.53;85.67;99712.28;4230008;28;20480;-76
2023/09/22 06:10:47;;;;;;;;;;;;;;;18.52;85.82;99719.63;4229646;28;20011;-75
2023/09/22 06:12:49;;;;;;;;;;;;;;;18.48;86.63;99723.97;4227461;28;20018;-76
2023/09/22 06:14:51;;;;;;;;;;;;;;;18.41;87.27;99723.31;4228309;28;20002;-74
2023/09/22 06:16:54;;;;;;;;;;;;;;;18.38;87.35;99723.84;4229363;28;20507;-74
2023/09/22 06:18:56;;;;;;;;;;;;;;;18.39;86.91;99709.09;4228738;28;20086;-73
2023/09/22 06:20:59;;;;;;;;;;;;;;;18.39;86.36;99703.63;4224987;28;20007;-73
2023/09/22 06:23:01;;;;;;;;;;;;;;;18.45;85.26;99715.44;4226961;28;20007;-74
2023/09/22 06:25:02;;;;;;;;;;;;;;;18.45;84.86;99708.09;4225897;28;20429;-75
2023/09/22 06:27:04;;;;;;;;;;;;;;;18.42;86.10;99696.84;4227961;28;20421;-73
2023/09/22 06:29:06;;;;;;;;;;;;;;;18.38;86.52;99704.69;4227122;28;20011;-74
2023/09/22 06:31:08;;;;;;;;;;;;;;;18.36;86.86;99715.88;4226557;28;20053;-73
2023/09/22 06:33:12;;;;;;;;;;;;;;;18.37;86.46;99714.00;4228342;28;19963;-74
2023/09/22 06:35:13;;;;;;;;;;;;;;;18.36;86.78;99715.88;4229732;28;20006;-73
2023/09/22 06:37:15;;;;;;;;;;;;;;;18.35;86.52;99722.47;4229731;28;19928;-74
2023/09/22 06:39:18;;;;;;;;;;;;;;;18.34;87.05;99728.19;4228701;28;20094;-74
2023/09/22 06:41:20;;;;;;;;;;;;;;;18.31;87.45;99731.41;4228831;28;20002;-74
2023/09/22 06:43:23;;;;;;;;;;;;;;;18.30;87.62;99738.75;4226365;28;20015;-73
2023/09/22 06:45:25;;;;;;;;;;;;;;;18.29;87.60;99723.47;4227430;28;20451;-74
2023/09/22 06:47:26;;;;;;;;;;;;;;;18.30;87.47;99724.28;4228573;28;20457;-73
2023/09/22 06:49:29;;;;;;;;;;;;;;;18.33;85.95;99719.13;4228177;28;19955;-74
2023/09/22 06:51:31;;;;;;;;;;;;;;;18.37;85.58;99711.28;4229291;28;20018;-73
2023/09/22 06:53:34;;;;;;;;;;;;;;;18.35;87.18;99706.06;4227998;28;20006;-77
2023/09/22 06:55:36;;;;;;;;;;;;;;;18.37;85.70;99728.47;4227877;28;20355;-74
2023/09/22 06:57:40;;;;;;;;;;;;;;;18.35;86.99;99754.41;4229479;28;20018;-74
2023/09/22 06:59:42;;;;;;;;;;;;;;;18.30;87.82;99749.69;4228402;28;20007;-74
2023/09/22 07:01:44;;;;;;;;;;;;;;;18.33;86.56;99762.88;4227791;28;20003;-74
2023/09/22 07:03:45;;;;;;;;;;;;;;;18.33;87.29;99749.19;4228492;28;20023;-76
2023/09/22 07:05:49;;;;;;;;;;;;;;;18.35;87.04;99740.75;4228572;28;20010;-74
2023/09/22 07:07:52;;;;;;;;;;;;;;;18.35;87.30;99749.78;4228815;28;20006;-73
2023/09/22 07:09:54;;;;;;;;;;;;;;;18.33;87.24;99754.66;4228165;28;20010;-75
2023/09/22 07:11:57;;;;;;;;;;;;;;;18.34;87.18;99764.53;4228648;28;20006;-75
2023/09/22 07:13:59;;;;;;;;;;;;;;;18.32;86.73;99774.03;4228433;28;20010;-74
2023/09/22 07:16:01;;;;;;;;;;;;;;;18.35;87.04;99790.78;4228283;28;20012;-74
2023/09/22 07:18:04;;;;;;;;;;;;;;;18.37;85.85;99802.28;4228662;28;19924;-74
2023/09/22 07:20:08;;;;;;;;;;;;;;;18.39;86.72;99804.78;4228513;28;20010;-74
2023/09/22 07:22:12;;;;;;;;;;;;;;;18.37;86.52;99794.09;4228186;28;20014;-74
2023/09/22 07:24:15;;;;;;;;;;;;;;;18.40;86.03;99797.41;4228472;28;20014;-75
2023/09/22 07:26:17;;;;;;;;;;;;;;;18.42;86.60;99806.19;4228240;28;20014;-73
2023/09/22 07:28:17;;;;;;;;;;;;;;;18.43;85.88;99805.94;4228815;28;20006;-73
2023/09/22 07:30:19;;;;;;;;;;;;;;;18.43;86.44;99797.75;4228397;28;19926;-72
2023/09/22 07:32:21;;;;;;;;;;;;;;;18.42;87.17;99795.25;4227172;28;20023;-73
2023/09/22 07:34:23;;;;;;;;;;;;;;;18.40;87.78;99786.47;4228019;28;19920;-74
2023/09/22 07:36:26;;;;;;;;;;;;;;;18.35;87.78;99798.16;4228250;28;20338;-74
2023/09/22 07:38:30;;;;;;;;;;;;;;;18.35;87.50;99815.41;4218463;28;19970;-72
2023/09/22 07:40:32;;;;;;;;;;;;;;;18.31;87.98;99827.91;4226363;28;20007;-74
2023/09/22 07:42:34;;;;;;;;;;;;;;;18.28;88.67;99833.03;4226773;28;20638;-73
2023/09/22 07:44:36;;;;;;;;;;;;;;;18.27;88.89;99829.47;4227449;28;20108;-73
2023/09/22 07:46:39;;;;;;;;;;;;;;;18.26;89.33;99837.91;4227827;28;20023;-73
2023/09/22 07:48:41;;;;;;;;;;;;;;;18.26;88.73;99841.50;4227259;28;20015;-75
2023/09/22 07:50:43;;;;;;;;;;;;;;;18.25;88.71;99831.63;4227036;28;20019;-75
2023/09/22 07:52:45;;;;;;;;;;;;;;;18.29;88.09;99838.25;4228851;28;20018;-75
2023/09/22 07:54:48;;;;;;;;;;;;;;;18.30;88.21;99837.16;4227818;28;20374;-75
2023/09/22 07:56:50;;;;;;;;;;;;;;;18.27;87.98;99845.03;4226333;28;20011;-73
2023/09/22 07:58:53;;;;;;;;;;;;;;;18.28;87.90;99843.97;4228472;28;20010;-73
2023/09/22 08:00:55;;;;;;;;;;;;;;;18.31;87.59;99848.94;4227564;28;20525;-73
2023/09/22 08:02:57;;;;;;;;;;;;;;;18.29;87.28;99842.88;4227044;28;20018;-74
2023/09/22 08:05:01;;;;;;;;;;;;;;;18.29;86.83;99840.16;4227662;28;20018;-73
2023/09/22 08:07:05;;;;;;;;;;;;;;;18.33;86.78;99839.41;4228367;28;20015;-73
2023/09/22 08:09:07;;;;;;;;;;;;;;;18.30;87.88;99834.44;4228167;28;20015;-74
2023/09/22 08:11:10;;;;;;;;;;;;;;;18.28;88.07;99831.13;4227876;28;20002;-74
2023/09/22 08:13:12;;;;;;;;;;;;;;;18.28;87.29;99833.88;4228112;28;20010;-73
2023/09/22 08:15:15;;;;;;;;;;;;;;;18.29;87.15;99845.63;4227398;28;20007;-73
2023/09/22 08:17:17;;;;;;;;;;;;;;;18.29;87.54;99849.19;4227371;28;20018;-73
2023/09/22 08:19:20;;;;;;;;;;;;;;;18.33;86.45;99853.06;4226914;28;19945;-73
2023/09/22 08:21:24;;;;;;;;;;;;;;;18.32;87.45;99856.91;4213606;28;20375;-75
2023/09/22 08:23:26;;;;;;;;;;;;;;;18.34;86.93;99871.13;4220102;28;20019;-74
2023/09/22 08:25:28;;;;;;;;;;;;;;;18.32;87.92;99870.56;4222683;28;20002;-75
2023/09/22 08:27:31;;;;;;;;;;;;;;;18.35;86.91;99880.16;4224402;28;20018;-74
2023/09/22 08:29:34;;;;;;;;;;;;;;;18.37;87.24;99888.94;4225669;28;20437;-75
2023/09/22 08:31:36;;;;;;;;;;;;;;;18.35;87.81;99891.94;4223302;28;19974;-74
2023/09/22 08:33:38;;;;;;;;;;;;;;;18.29;88.49;99892.94;4226726;28;20006;-73
2023/09/22 08:35:40;;;;;;;;;;;;;;;18.27;88.38;99897.78;4226278;28;19947;-75
2023/09/22 08:37:43;;;;;;;;;;;;;;;18.25;88.09;99907.34;4225991;28;20023;-73
2023/09/22 08:39:45;;;;;;;;;;;;;;;18.23;88.27;99907.59;4226834;28;20384;-75
2023/09/22 08:41:47;;;;;;;;;;;;;;;18.23;89.15;99907.59;4226883;28;20022;-75
2023/09/22 08:43:52;;;;;;;;;;;;;;;18.22;88.56;99908.66;4218006;28;20043;-74
2023/09/22 08:45:54;;;;;;;;;;;;;;;18.24;88.63;99906.50;4226080;28;20021;-74
2023/09/22 08:47:56;;;;;;;;;;;;;;;18.24;88.52;99908.41;4226978;28;20018;-74
2023/09/22 08:49:58;;;;;;;;;;;;;;;18.18;88.53;99910.22;4225214;28;20019;-74
2023/09/22 08:52:01;;;;;;;;;;;;;;;18.22;86.99;99911.38;4227266;28;20087;-73
2023/09/22 08:54:03;;;;;;;;;;;;;;;18.24;88.01;99919.34;4228236;28;20030;-74
2023/09/22 08:56:06;;;;;;;;;;;;;;;18.24;87.79;99922.88;4227760;28;20030;-74
2023/09/22 08:58:08;;;;;;;;;;;;;;;18.28;87.00;99926.78;4222448;28;20026;-73
2023/09/22 09:00:18;;;;;;;;;;;;;;;18.25;87.54;99921.81;4224241;28;20364;-73
2023/09/22 09:02:20;;;;;;;;;;;;;;;18.27;86.79;99929.78;4225710;28;20010;-75
2023/09/22 09:04:33;;;;;;;;;;;;;;;18.30;87.60;99934.75;4226980;28;20022;-74
2023/09/22 09:06:44;;;;;;;;;;;;;;;18.33;87.33;99931.53;4226213;28;20007;-73
2023/09/22 09:09:01;;;;;;;;;;;;;;;18.31;87.76;99930.94;4230171;28;20002;-73
2023/09/22 09:11:07;;;;;;;;;;;;;;;18.29;87.21;99919.41;4229391;28;20038;-73
2023/09/22 09:13:13;;;;;;;;;;;;;;;18.29;87.22;99916.69;4228464;28;20031;-73
2023/09/22 09:15:15;;;;;;;;;;;;;;;18.31;86.20;99926.28;4230534;28;20014;-75
2023/09/22 09:17:21;;;;;;;;;;;;;;;18.31;86.49;99926.28;4229321;28;20010;-73
2023/09/22 09:19:22;;;;;;;;;;;;;;;18.31;86.93;99930.94;4229149;28;20045;-74
2023/09/22 09:21:24;;;;;;;;;;;;;;;18.32;86.43;99930.69;4228620;27;20367;-73
2023/09/22 09:23:26;;;;;;;;;;;;;;;18.35;86.10;99937.56;4229631;28;20454;-73
2023/09/22 09:25:29;;;;;;;;;;;;;;;18.35;85.82;99946.59;4229126;27;20520;-75
2023/09/22 09:27:31;;;;;;;;;;;;;;;18.30;86.67;99946.50;4228638;28;20014;-73
2023/09/22 09:29:33;;;;;;;;;;;;;;;18.27;86.29;99947.00;4228139;28;20022;-73
2023/09/22 09:31:45;;;;;;;;;;;;;;;18.26;86.25;99944.50;4227940;28;20010;-71
2023/09/22 09:33:48;;;;;;;;;;;;;;;18.26;86.46;99956.28;4227347;28;20018;-72
2023/09/22 09:35:50;;;;;;;;;;;;;;;18.25;86.32;99962.81;4229001;28;20011;-75
2023/09/22 09:38:00;;;;;;;;;;;;;;;18.23;86.11;99964.97;4229991;28;20352;-75
2023/09/22 09:40:03;;;;;;;;;;;;;;;18.24;85.89;99952.13;4228648;28;20015;-76
2023/09/22 09:42:05;;;;;;;;;;;;;;;18.22;85.97;99960.56;4229350;28;20460;-74
2023/09/22 09:44:07;;;;;;;;;;;;;;;18.24;86.34;99958.41;4227906;28;20097;-74
2023/09/22 09:46:10;;;;;;;;;;;;;;;18.21;86.37;99960.81;4229506;28;20034;-74
2023/09/22 09:48:17;;;;;;;;;;;;;;;18.22;85.91;99965.22;4228511;28;20014;-73
2023/09/22 09:50:19;;;;;;;;;;;;;;;18.17;86.90;99968.69;4236913;27;20014;-72
2023/09/22 09:52:22;;;;;;;;;;;;;;;18.13;87.63;99973.81;4228469;28;20425;-72
2023/09/22 09:54:24;;;;;;;;;;;;;;;18.12;87.42;99971.31;4228688;28;20543;-72
2023/09/22 09:56:27;;;;;;;;;;;;;;;18.12;87.32;99968.59;4228158;28;20035;-72
2023/09/22 09:58:30;;;;;;;;;;;;;;;18.11;87.49;99973.22;4229113;28;20018;-72
2023/09/22 10:00:35;;;;;;;;;;;;;;;18.14;86.81;99969.19;4227704;28;20022;-72
2023/09/22 10:02:36;;;;;;;;;;;;;;;18.12;87.44;99966.69;4227391;28;20014;-72
2023/09/22 10:04:39;;;;;;;;;;;;;;;18.11;87.05;99966.94;4229037;28;20022;-72
2023/09/22 10:06:42;;;;;;;;;;;;;;;18.09;87.20;99958.19;4228841;28;20371;-71
2023/09/22 10:08:44;;;;;;;;;;;;;;;18.11;86.34;99956.00;4228858;28;20015;-72
2023/09/22 10:10:45;;;;;;;;;;;;;;;18.12;86.22;99958.50;4228738;28;20034;-71
2023/09/22 10:12:47;;;;;;;;;;;;;;;18.12;86.15;99965.84;4228507;28;20023;-72
2023/09/22 10:14:53;;;;;;;;;;;;;;;18.14;86.45;99952.78;4228004;28;20121;-74
2023/09/22 10:16:55;;;;;;;;;;;;;;;18.12;85.95;99958.50;4228123;28;20015;-70
2023/09/22 10:18:59;;;;;;;;;;;;;;;18.09;86.05;99947.25;4227056;28;20515;-71
2023/09/22 10:21:02;;;;;;;;;;;;;;;18.07;86.05;99947.50;4228319;28;20440;-74
2023/09/22 10:23:15;;;;;;;;;;;;;;;18.10;85.83;99954.34;4227444;28;20464;-74
2023/09/22 10:25:24;;;;;;;;;;;;;;;18.08;85.94;99962.78;4227984;28;20010;-74
2023/09/22 10:27:28;;;;;;;;;;;;;;;18.06;85.92;99958.66;4226717;28;20018;-72
2023/09/22 10:29:39;;;;;;;;;;;;;;;18.06;85.97;99956.75;4219893;28;20051;-67
2023/09/22 10:31:51;;;;;;;;;;;;;;;18.07;85.77;99950.22;4236680;27;20022;-68
2023/09/22 10:33:53;;;;;;;;;;;;;;;18.13;85.02;99957.41;4228735;28;20022;-67
2023/09/22 10:35:54;;;;;;;;;;;;;;;18.16;85.96;99956.09;4227645;28;20354;-67
2023/09/22 10:37:59;;;;;;;;;;;;;;;18.16;85.69;99964.28;4225995;28;19923;-69